createdAt,value
2023-12-30T00:01:31.119Z,97020.06
2023-12-30T00:03:58.980Z,96987.91
2023-12-30T00:06:29.530Z,97000.72
2023-12-30T00:08:57.511Z,97007.28
2023-12-30T00:11:25.194Z,97004.75
2023-12-30T00:13:53.104Z,97002.25
2023-12-30T00:16:21.217Z,97016.53
2023-12-30T00:18:50.294Z,97014.97
2023-12-30T00:21:20.385Z,97015.56
2023-12-30T00:23:49.605Z,97020.31
2023-12-30T00:26:23.638Z,97024.63
2023-12-30T00:28:51.894Z,97017.38
2023-12-30T00:31:24.134Z,97020.66
2023-12-30T00:33:53.463Z,97033.19
2023-12-30T00:36:21.152Z,97020.53
2023-12-30T00:38:48.945Z,97028.78
2023-12-30T00:41:16.649Z,97043.13
2023-12-30T00:43:44.679Z,97036.94
2023-12-30T00:46:12.671Z,97025.84
2023-12-30T00:48:40.314Z,97043.41
2023-12-30T00:51:09.381Z,97043.41
2023-12-30T00:53:37.319Z,97035.72
2023-12-30T00:56:05.469Z,97034.44
2023-12-30T00:58:33.206Z,97045.19
2023-12-30T01:01:01.312Z,97035.09
2023-12-30T01:03:29.071Z,97043.59
2023-12-30T01:05:56.882Z,97049.78
2023-12-30T01:08:24.995Z,97055.22
2023-12-30T01:10:52.778Z,97061.88
2023-12-30T01:13:20.689Z,97056.25
2023-12-30T01:15:48.463Z,97059.34
2023-12-30T01:18:16.263Z,97061.03
2023-12-30T01:20:44.189Z,97065.59
2023-12-30T01:23:12.060Z,97069.28
2023-12-30T01:25:43.862Z,97061.22
2023-12-30T01:28:11.713Z,97064.88
2023-12-30T01:30:39.486Z,97073.97
2023-12-30T01:33:07.544Z,97075.66
2023-12-30T01:35:35.926Z,97072.28
2023-12-30T01:38:06.030Z,97076.69
2023-12-30T01:40:34.716Z,97076.59
2023-12-30T01:43:06.055Z,97082.31
2023-12-30T01:45:33.985Z,97084.09
2023-12-30T01:48:03.303Z,97080.16
2023-12-30T01:50:31.417Z,97082.44
2023-12-30T01:52:59.301Z,97085.44
2023-12-30T01:55:27.352Z,97103.03
2023-12-30T01:57:55.044Z,97092.88
2023-12-30T02:00:25.790Z,97105.25
2023-12-30T02:02:54.469Z,97104.25
2023-12-30T02:05:22.230Z,97095.91
2023-12-30T02:07:50.199Z,97106.56
2023-12-30T02:10:18.058Z,97088.88
2023-12-30T02:12:45.787Z,97101.53
2023-12-30T02:15:14.666Z,97081.13
2023-12-30T02:17:44.756Z,97101.69
2023-12-30T02:20:13.248Z,97110.19
2023-12-30T02:22:44.875Z,97096.09
2023-12-30T02:25:13.010Z,97092.63
2023-12-30T02:27:40.813Z,97105.59
2023-12-30T02:30:09.252Z,97101.19
2023-12-30T02:32:37.627Z,97100.00
2023-12-30T02:35:06.173Z,97091.94
2023-12-30T02:37:33.933Z,97097.94
2023-12-30T02:40:03.363Z,97100.09
2023-12-30T02:42:31.076Z,97093.63
2023-12-30T02:44:58.949Z,97095.22
2023-12-30T02:47:26.744Z,97088.22
2023-12-30T02:49:54.618Z,97091.19
2023-12-30T02:52:23.335Z,97069.25
2023-12-30T02:54:51.001Z,97078.50
2023-12-30T02:57:20.192Z,97084.41
2023-12-30T02:59:47.919Z,97088.03
2023-12-30T03:02:15.582Z,97102.31
2023-12-30T03:04:43.283Z,97102.44
2023-12-30T03:07:11.431Z,97107.88
2023-12-30T03:09:39.158Z,97095.59
2023-12-30T03:12:09.408Z,97102.84
2023-12-30T03:14:38.484Z,97110.84
2023-12-30T03:17:06.324Z,97119.31
2023-12-30T03:19:33.964Z,97120.81
2023-12-30T03:22:01.600Z,97118.66
2023-12-30T03:24:29.230Z,97116.31
2023-12-30T03:26:56.841Z,97115.91
2023-12-30T03:29:24.845Z,97118.75
2023-12-30T03:31:54.438Z,97116.91
2023-12-30T03:34:22.182Z,97125.50
2023-12-30T03:36:49.874Z,97117.03
2023-12-30T03:39:17.460Z,97128.81
2023-12-30T03:41:45.235Z,97131.38
2023-12-30T03:44:13.444Z,97133.91
2023-12-30T03:46:42.234Z,97126.72
2023-12-30T03:49:11.389Z,97127.41
2023-12-30T03:51:39.040Z,97129.16
2023-12-30T03:54:07.105Z,97124.03
2023-12-30T03:56:34.731Z,97125.72
2023-12-30T03:59:02.361Z,97126.78
2023-12-30T04:01:30.129Z,97134.19
2023-12-30T04:03:57.946Z,97127.09
2023-12-30T04:06:27.095Z,97138.31
2023-12-30T04:08:54.864Z,97137.38
2023-12-30T04:11:22.616Z,97116.97
2023-12-30T04:13:50.610Z,97132.38
2023-12-30T04:16:18.434Z,97134.75
2023-12-30T04:18:46.050Z,97146.88
2023-12-30T04:21:13.792Z,97144.53
2023-12-30T04:23:42.894Z,97136.28
2023-12-30T04:26:10.492Z,97137.50
2023-12-30T04:28:38.407Z,97142.22
2023-12-30T04:31:06.376Z,97141.44
2023-12-30T04:33:34.439Z,97140.31
2023-12-30T04:36:02.110Z,97143.31
2023-12-30T04:38:29.971Z,97138.28
2023-12-30T04:40:59.362Z,97136.59
2023-12-30T04:43:27.216Z,97148.38
2023-12-30T04:45:54.940Z,97146.22
2023-12-30T04:48:22.857Z,97146.94
2023-12-30T04:50:50.609Z,97147.56
2023-12-30T04:53:18.603Z,97147.06
2023-12-30T04:55:46.282Z,97145.63
2023-12-30T04:58:16.289Z,97140.97
2023-12-30T05:00:44.243Z,97157.63
2023-12-30T05:03:12.086Z,97141.94
2023-12-30T05:05:40.071Z,97154.44
2023-12-30T05:08:09.159Z,97161.50
2023-12-30T05:10:37.296Z,97158.56
2023-12-30T05:13:06.692Z,97158.94
2023-12-30T05:15:36.149Z,97149.53
2023-12-30T05:18:04.221Z,97154.06
2023-12-30T05:20:31.988Z,97168.63
2023-12-30T05:23:01.735Z,97175.44
2023-12-30T05:25:29.846Z,97157.41
2023-12-30T05:27:57.757Z,97187.88
2023-12-30T05:30:29.231Z,97189.88
2023-12-30T05:32:58.582Z,97193.34
2023-12-30T05:35:26.600Z,97190.88
2023-12-30T05:37:54.445Z,97196.81
2023-12-30T05:40:22.387Z,97202.53
2023-12-30T05:42:50.330Z,97215.75
2023-12-30T05:45:18.639Z,97205.44
2023-12-30T05:47:46.650Z,97210.97
2023-12-30T05:50:16.280Z,97204.53
2023-12-30T05:52:44.230Z,97214.09
2023-12-30T05:55:12.066Z,97213.72
2023-12-30T05:57:39.769Z,97235.34
2023-12-30T06:00:09.413Z,97214.13
2023-12-30T06:02:37.043Z,97221.81
2023-12-30T06:05:05.492Z,97210.25
2023-12-30T06:07:35.936Z,97202.56
2023-12-30T06:10:04.061Z,97215.88
2023-12-30T06:12:32.375Z,97229.44
2023-12-30T06:15:00.351Z,97227.50
2023-12-30T06:17:28.237Z,97224.03
2023-12-30T06:19:56.174Z,97220.84
2023-12-30T06:22:24.352Z,97222.88
2023-12-30T06:24:53.945Z,97231.41
2023-12-30T06:27:21.970Z,97216.50
2023-12-30T06:29:50.327Z,97233.63
2023-12-30T06:32:20.719Z,97228.09
2023-12-30T06:34:48.484Z,97231.13
2023-12-30T06:37:16.214Z,97233.66
2023-12-30T06:39:44.725Z,97238.03
2023-12-30T06:42:14.106Z,97242.53
2023-12-30T06:44:42.248Z,97244.34
2023-12-30T06:47:10.143Z,97270.72
2023-12-30T06:49:40.497Z,97258.94
2023-12-30T06:52:08.641Z,97248.31
2023-12-30T06:54:36.650Z,97251.13
2023-12-30T06:57:04.592Z,97259.16
2023-12-30T06:59:35.969Z,97261.81
2023-12-30T07:02:03.769Z,97259.03
2023-12-30T07:04:31.487Z,97262.50
2023-12-30T07:06:59.230Z,97251.59
2023-12-30T07:09:26.870Z,97269.78
2023-12-30T07:11:54.667Z,97276.59
2023-12-30T07:14:22.381Z,97275.22
2023-12-30T07:16:52.155Z,97269.78
2023-12-30T07:19:20.259Z,97261.28
2023-12-30T07:21:49.113Z,97271.47
2023-12-30T07:24:16.867Z,97276.94
2023-12-30T07:26:44.761Z,97290.03
2023-12-30T07:29:12.730Z,97285.13
2023-12-30T07:31:40.467Z,97284.19
2023-12-30T07:34:09.702Z,97297.63
2023-12-30T07:36:37.598Z,97297.63
2023-12-30T07:39:05.414Z,97293.47
2023-12-30T07:41:33.260Z,97271.50
2023-12-30T07:44:01.109Z,97297.25
2023-12-30T07:46:29.313Z,97310.75
2023-12-30T07:48:57.228Z,97288.91
2023-12-30T07:51:26.905Z,97296.34
2023-12-30T07:53:54.982Z,97320.81
2023-12-30T07:56:22.828Z,97304.38
2023-12-30T07:58:50.616Z,97307.81
2023-12-30T08:01:19.114Z,97305.78
2023-12-30T08:03:46.987Z,97304.00
2023-12-30T08:06:15.208Z,97304.72
2023-12-30T08:08:44.604Z,97305.91
2023-12-30T08:11:12.469Z,97312.84
2023-12-30T08:13:40.270Z,97308.91
2023-12-30T08:16:09.320Z,97312.09
2023-12-30T08:18:37.400Z,97310.75
2023-12-30T08:21:05.503Z,97307.59
2023-12-30T08:23:33.320Z,97300.50
2023-12-30T08:26:02.510Z,97305.19
2023-12-30T08:28:30.397Z,97307.19
2023-12-30T08:31:00.513Z,97298.72
2023-12-30T08:33:28.981Z,97307.06
2023-12-30T08:35:56.909Z,97300.41
2023-12-30T08:38:24.735Z,97307.34
2023-12-30T08:40:52.542Z,97310.81
2023-12-30T08:43:21.735Z,97320.63
2023-12-30T08:45:49.484Z,97319.78
2023-12-30T08:48:17.691Z,97316.06
2023-12-30T08:50:46.024Z,97308.84
2023-12-30T08:53:14.027Z,97311.66
2023-12-30T08:55:41.870Z,97305.81
2023-12-30T08:58:11.109Z,97284.00
2023-12-30T09:00:42.565Z,97306.44
2023-12-30T09:03:10.843Z,97309.81
2023-12-30T09:05:38.990Z,97324.78
2023-12-30T09:08:07.976Z,97321.69
2023-12-30T09:10:36.901Z,97320.78
2023-12-30T09:13:05.652Z,97313.25
2023-12-30T09:15:35.703Z,97325.19
2023-12-30T09:18:07.176Z,97336.25
2023-12-30T09:20:35.272Z,97340.19
2023-12-30T09:23:04.310Z,97340.34
2023-12-30T09:25:32.478Z,97348.63
2023-12-30T09:28:01.047Z,97335.25
2023-12-30T09:30:29.052Z,97350.38
2023-12-30T09:32:56.875Z,97352.00
2023-12-30T09:35:26.203Z,97351.84
2023-12-30T09:37:54.901Z,97357.84
2023-12-30T09:40:23.912Z,97359.81
2023-12-30T09:42:54.488Z,97362.28
2023-12-30T09:45:24.282Z,97365.69
2023-12-30T09:47:52.847Z,97361.47
2023-12-30T09:50:20.955Z,97373.47
2023-12-30T09:52:51.076Z,97363.03
2023-12-30T09:55:18.931Z,97357.38
2023-12-30T09:57:47.354Z,97380.63
2023-12-30T10:00:20.814Z,97377.72
2023-12-30T10:02:48.096Z,97391.50
2023-12-30T10:05:17.319Z,97378.00
2023-12-30T10:07:45.273Z,97380.63
2023-12-30T10:10:14.519Z,97383.53
2023-12-30T10:12:42.352Z,97397.56
2023-12-30T10:15:10.619Z,97391.25
2023-12-30T10:17:39.613Z,97393.41
2023-12-30T10:20:09.943Z,97388.28
2023-12-30T10:22:39.807Z,97391.84
2023-12-30T10:25:09.715Z,97387.34
2023-12-30T10:27:39.418Z,97388.72
2023-12-30T10:30:09.594Z,97387.44
2023-12-30T10:32:37.566Z,97379.63
2023-12-30T10:35:06.193Z,97383.69
2023-12-30T10:37:34.170Z,97378.34
2023-12-30T10:40:03.360Z,97377.03
2023-12-30T10:42:31.127Z,97370.63
2023-12-30T10:45:00.307Z,97370.38
2023-12-30T10:47:29.414Z,97368.91
2023-12-30T10:50:05.969Z,97372.06
2023-12-30T10:52:34.596Z,97359.53
2023-12-30T10:55:10.390Z,97362.59
2023-12-30T10:57:39.644Z,97372.78
2023-12-30T11:00:11.188Z,97372.41
2023-12-30T11:02:39.151Z,97360.97
2023-12-30T11:05:10.557Z,97364.56
2023-12-30T11:07:38.804Z,97369.34
2023-12-30T11:10:18.081Z,97366.47
2023-12-30T11:12:46.707Z,97362.88
2023-12-30T11:15:26.768Z,97363.66
2023-12-30T11:17:54.767Z,97342.56
2023-12-30T11:20:31.259Z,97359.88
2023-12-30T11:23:01.283Z,97352.88
2023-12-30T11:25:37.435Z,97360.72
2023-12-30T11:28:16.601Z,97356.22
2023-12-30T11:30:47.176Z,97364.13
2023-12-30T11:33:16.038Z,97353.06
2023-12-30T11:35:43.871Z,97364.66
2023-12-30T11:38:16.463Z,97351.63
2023-12-30T11:40:50.758Z,97347.97
2023-12-30T11:43:18.942Z,97351.25
2023-12-30T11:45:48.292Z,97345.97
2023-12-30T11:48:16.257Z,97341.66
2023-12-30T11:50:44.133Z,97345.31
2023-12-30T11:53:11.963Z,97341.16
2023-12-30T11:55:39.990Z,97331.03
2023-12-30T11:58:09.015Z,97319.53
2023-12-30T12:00:37.044Z,97321.47
2023-12-30T12:03:07.220Z,97320.28
2023-12-30T12:05:35.318Z,97310.84
2023-12-30T12:08:03.618Z,97307.13
2023-12-30T12:10:31.620Z,97315.78
2023-12-30T12:12:59.694Z,97310.34
2023-12-30T12:15:27.699Z,97306.22
2023-12-30T12:17:55.454Z,97309.66
2023-12-30T12:20:25.214Z,97318.84
2023-12-30T12:22:55.607Z,97318.81
2023-12-30T12:25:24.340Z,97316.03
2023-12-30T12:27:52.704Z,97295.03
2023-12-30T12:30:20.683Z,97307.59
2023-12-30T12:32:50.343Z,97304.97
2023-12-30T12:35:18.959Z,97297.34
2023-12-30T12:37:48.065Z,97301.09
2023-12-30T12:40:17.517Z,97303.28
2023-12-30T12:42:47.498Z,97302.00
2023-12-30T12:45:15.979Z,97292.34
2023-12-30T12:47:56.662Z,97300.53
2023-12-30T12:50:24.988Z,97296.56
2023-12-30T12:52:57.300Z,97293.16
2023-12-30T12:55:27.522Z,97306.78
2023-12-30T12:57:55.364Z,97295.75
2023-12-30T13:00:25.602Z,97303.88
2023-12-30T13:02:53.625Z,97293.78
2023-12-30T13:05:23.911Z,97274.81
2023-12-30T13:07:53.406Z,97290.00
2023-12-30T13:10:49.039Z,97303.81
2023-12-30T13:13:17.262Z,97290.72
2023-12-30T13:15:46.225Z,97282.84
2023-12-30T13:18:20.495Z,97268.66
2023-12-30T13:20:49.180Z,97276.78
2023-12-30T13:23:17.938Z,97271.53
2023-12-30T13:25:49.684Z,97272.16
2023-12-30T13:28:18.433Z,97277.09
2023-12-30T13:30:47.126Z,97277.50
2023-12-30T13:33:19.494Z,97274.97
2023-12-30T13:35:59.436Z,97278.06
2023-12-30T13:38:31.791Z,97281.97
2023-12-30T13:41:05.310Z,97272.44
2023-12-30T13:43:34.142Z,97264.44
2023-12-30T13:46:24.120Z,97268.06
2023-12-30T13:49:09.201Z,97253.78
2023-12-30T13:51:38.492Z,97262.63
2023-12-30T13:54:07.063Z,97264.69
2023-12-30T13:56:39.504Z,97252.50
2023-12-30T13:59:10.571Z,97258.91
2023-12-30T14:01:40.380Z,97238.97
2023-12-30T14:04:08.987Z,97245.69
2023-12-30T14:06:40.476Z,97254.38
2023-12-30T14:09:25.539Z,97253.72
2023-12-30T14:11:59.391Z,97249.59
2023-12-30T14:14:30.744Z,97245.69
2023-12-30T14:17:01.110Z,97245.78
2023-12-30T14:19:28.952Z,97254.69
2023-12-30T14:21:57.034Z,97241.94
2023-12-30T14:24:24.988Z,97243.38
2023-12-30T14:26:56.466Z,97236.06
2023-12-30T14:29:24.279Z,97241.41
2023-12-30T14:31:52.057Z,97251.75
2023-12-30T14:34:20.189Z,97235.44
2023-12-30T14:36:49.138Z,97233.13
2023-12-30T14:39:17.200Z,97238.19
2023-12-30T14:41:45.049Z,97228.75
2023-12-30T14:44:14.820Z,97223.84
2023-12-30T14:46:42.661Z,97220.88
2023-12-30T14:49:10.640Z,97213.66
2023-12-30T14:51:38.393Z,97216.97
2023-12-30T14:54:06.488Z,97222.69
2023-12-30T14:56:34.903Z,97209.44
2023-12-30T14:59:03.030Z,97216.88
2023-12-30T15:01:33.003Z,97216.19
2023-12-30T15:04:03.395Z,97214.81
2023-12-30T15:06:31.942Z,97213.25
2023-12-30T15:09:00.521Z,97209.94
2023-12-30T15:11:29.549Z,97212.75
2023-12-30T15:13:57.641Z,97217.97
2023-12-30T15:16:25.489Z,97218.03
2023-12-30T15:18:54.890Z,97221.34
2023-12-30T15:21:22.709Z,97220.31
2023-12-30T15:23:50.303Z,97233.59
2023-12-30T15:26:18.453Z,97223.22
2023-12-30T15:28:46.243Z,97227.31
2023-12-30T15:31:14.136Z,97219.75
2023-12-30T15:33:42.004Z,97222.34
2023-12-30T15:36:11.547Z,97221.72
2023-12-30T15:38:39.633Z,97209.19
2023-12-30T15:41:07.389Z,97222.44
2023-12-30T15:43:35.306Z,97219.53
2023-12-30T15:46:03.556Z,97214.81
2023-12-30T15:48:31.401Z,97225.38
2023-12-30T15:50:59.142Z,97224.91
2023-12-30T15:53:28.192Z,97217.69
2023-12-30T15:55:55.935Z,97217.50
2023-12-30T15:58:23.646Z,97221.13
2023-12-30T16:00:52.576Z,97219.22
2023-12-30T16:03:20.936Z,97215.56
2023-12-30T16:05:49.373Z,97208.69
2023-12-30T16:08:17.583Z,97214.66
2023-12-30T16:10:47.192Z,97207.00
2023-12-30T16:13:15.044Z,97203.50
2023-12-30T16:15:44.145Z,97199.25
2023-12-30T16:18:11.975Z,97200.75
2023-12-30T16:20:40.226Z,97197.00
2023-12-30T16:23:09.209Z,97197.31
2023-12-30T16:25:37.545Z,97196.00
2023-12-30T16:28:07.389Z,97197.88
2023-12-30T16:30:35.033Z,97184.88
2023-12-30T16:33:03.231Z,97183.47
2023-12-30T16:35:31.350Z,97192.28
2023-12-30T16:37:59.104Z,97187.28
2023-12-30T16:40:28.810Z,97189.19
2023-12-30T16:42:56.457Z,97176.34
2023-12-30T16:45:25.778Z,97176.03
2023-12-30T16:47:53.651Z,97170.78
2023-12-30T16:50:21.404Z,97158.19
2023-12-30T16:52:50.381Z,97164.59
2023-12-30T16:55:32.490Z,97162.19
2023-12-30T16:58:00.568Z,97153.16
2023-12-30T17:00:29.850Z,97168.59
2023-12-30T17:02:57.504Z,97159.72
2023-12-30T17:05:25.224Z,97151.94
2023-12-30T17:07:52.962Z,97166.56
2023-12-30T17:10:21.053Z,97169.63
2023-12-30T17:12:48.817Z,97168.91
2023-12-30T17:15:16.892Z,97168.53
2023-12-30T17:17:45.967Z,97157.28
2023-12-30T17:20:16.822Z,97163.13
2023-12-30T17:22:44.452Z,97155.94
2023-12-30T17:25:12.143Z,97151.72
2023-12-30T17:27:39.862Z,97155.75
2023-12-30T17:30:09.107Z,97154.69
2023-12-30T17:32:37.148Z,97159.09
2023-12-30T17:35:07.037Z,97162.97
2023-12-30T17:37:35.080Z,97156.25
2023-12-30T17:40:04.439Z,97159.22
2023-12-30T17:42:32.057Z,97166.53
2023-12-30T17:44:59.969Z,97177.25
2023-12-30T17:47:27.692Z,97162.81
2023-12-30T17:49:55.443Z,97167.78
2023-12-30T17:52:24.602Z,97164.31
2023-12-30T17:54:52.338Z,97177.25
2023-12-30T17:57:20.156Z,97170.56
2023-12-30T17:59:47.842Z,97169.47
2023-12-30T18:02:19.519Z,97173.47
2023-12-30T18:04:47.739Z,97159.59
2023-12-30T18:07:17.034Z,97172.78
2023-12-30T18:09:48.170Z,97156.34
2023-12-30T18:12:16.348Z,97162.59
2023-12-30T18:14:44.196Z,97164.44
2023-12-30T18:17:11.968Z,97172.84
2023-12-30T18:19:42.206Z,97167.22
2023-12-30T18:22:09.906Z,97170.66
2023-12-30T18:24:37.702Z,97169.56
2023-12-30T18:27:06.860Z,97160.75
2023-12-30T18:29:34.886Z,97169.25
2023-12-30T18:32:03.275Z,97162.97
2023-12-30T18:34:31.167Z,97156.75
2023-12-30T18:36:58.911Z,97162.13
2023-12-30T18:39:26.735Z,97160.13
2023-12-30T18:41:54.567Z,97158.56
2023-12-30T18:44:23.668Z,97155.97
2023-12-30T18:46:51.502Z,97160.31
2023-12-30T18:49:20.547Z,97153.59
2023-12-30T18:51:48.320Z,97148.59
2023-12-30T18:54:16.002Z,97149.50
2023-12-30T18:56:44.811Z,97147.97
2023-12-30T18:59:12.649Z,97157.09
2023-12-30T19:01:43.657Z,97149.53
2023-12-30T19:04:11.859Z,97139.34
2023-12-30T19:06:39.884Z,97141.22
2023-12-30T19:09:08.549Z,97131.56
2023-12-30T19:11:36.805Z,97138.16
2023-12-30T19:14:04.544Z,97138.06
2023-12-30T19:16:34.713Z,97129.38
2023-12-30T19:19:04.013Z,97120.47
2023-12-30T19:21:32.421Z,97122.69
2023-12-30T19:24:01.585Z,97123.47
2023-12-30T19:26:30.380Z,97111.28
2023-12-30T19:28:58.470Z,97113.50
2023-12-30T19:31:26.244Z,97114.47
2023-12-30T19:33:54.020Z,97098.03
2023-12-30T19:36:24.221Z,97092.59
2023-12-30T19:38:54.467Z,97101.84
2023-12-30T19:41:22.076Z,97094.25
2023-12-30T19:43:52.047Z,97097.91
2023-12-30T19:46:19.896Z,97105.16
2023-12-30T19:48:47.630Z,97087.94
2023-12-30T19:51:15.449Z,97069.63
2023-12-30T19:53:44.683Z,97085.94
2023-12-30T19:56:12.778Z,97086.91
2023-12-30T19:58:40.433Z,97080.59
2023-12-30T20:01:08.567Z,97086.44
2023-12-30T20:03:39.525Z,97085.56
2023-12-30T20:06:12.379Z,97078.69
2023-12-30T20:08:40.370Z,97083.09
2023-12-30T20:11:10.637Z,97072.59
2023-12-30T20:13:39.500Z,97069.63
2023-12-30T20:16:09.187Z,97070.69
2023-12-30T20:18:38.511Z,97069.53
2023-12-30T20:21:07.204Z,97076.22
2023-12-30T20:23:35.864Z,97057.00
2023-12-30T20:26:04.864Z,97052.78
2023-12-30T20:28:34.048Z,97054.06
2023-12-30T20:31:02.245Z,97051.56
2023-12-30T20:33:30.161Z,97055.56
2023-12-30T20:35:57.957Z,97054.19
2023-12-30T20:38:25.633Z,97049.28
2023-12-30T20:40:53.412Z,97049.38
2023-12-30T20:43:21.272Z,97039.78
2023-12-30T20:45:50.867Z,97049.22
2023-12-30T20:48:18.674Z,97043.13
2023-12-30T20:50:46.606Z,97040.94
2023-12-30T20:53:14.367Z,97029.25
2023-12-30T20:55:42.081Z,97032.25
2023-12-30T20:58:09.867Z,97039.16
2023-12-30T21:00:39.648Z,97036.34
2023-12-30T21:03:09.755Z,97025.91
2023-12-30T21:05:40.453Z,97021.31
2023-12-30T21:08:08.468Z,97029.91
2023-12-30T21:10:36.214Z,97024.66
2023-12-30T21:13:04.386Z,97033.28
2023-12-30T21:15:32.541Z,97018.88
2023-12-30T21:18:00.375Z,97006.50
2023-12-30T21:20:29.431Z,96986.41
2023-12-30T21:22:57.291Z,96977.38
2023-12-30T21:25:27.453Z,97003.25
2023-12-30T21:27:55.621Z,96993.78
2023-12-30T21:30:25.134Z,97005.34
2023-12-30T21:32:53.370Z,96998.19
2023-12-30T21:35:21.214Z,97000.50
2023-12-30T21:37:51.566Z,96988.00
2023-12-30T21:40:20.556Z,96973.19
2023-12-30T21:42:48.246Z,96971.06
2023-12-30T21:45:16.079Z,96983.25
2023-12-30T21:47:44.024Z,96970.88
2023-12-30T21:50:12.022Z,96976.84
2023-12-30T21:52:39.906Z,96976.84
2023-12-30T21:55:09.967Z,96976.13
2023-12-30T21:57:37.703Z,96972.75
2023-12-30T22:00:05.888Z,96970.47
2023-12-30T22:02:35.076Z,96962.88
2023-12-30T22:05:04.062Z,96956.06
2023-12-30T22:07:31.989Z,96961.41
2023-12-30T22:10:00.909Z,96953.00
2023-12-30T22:12:32.426Z,96953.00
2023-12-30T22:15:00.629Z,96951.22
2023-12-30T22:17:28.543Z,96950.69
2023-12-30T22:19:57.418Z,96947.53
2023-12-30T22:22:25.228Z,96942.81
2023-12-30T22:24:53.229Z,96936.38
2023-12-30T22:27:21.557Z,96943.09
2023-12-30T22:29:50.583Z,96911.16
2023-12-30T22:32:18.224Z,96937.97
2023-12-30T22:34:45.944Z,96934.28
2023-12-30T22:37:15.761Z,96934.47
2023-12-30T22:39:45.484Z,96922.63
2023-12-30T22:42:13.469Z,96918.50
2023-12-30T22:44:41.501Z,96916.38
2023-12-30T22:47:11.303Z,96918.50
2023-12-30T22:49:39.138Z,96915.97
2023-12-30T22:52:09.146Z,96906.50
2023-12-30T22:54:39.911Z,96916.81
2023-12-30T22:57:09.581Z,96906.53
2023-12-30T22:59:37.759Z,96908.22
2023-12-30T23:02:06.482Z,96901.06
2023-12-30T23:04:35.929Z,96901.06
2023-12-30T23:07:03.732Z,96894.84
2023-12-30T23:09:32.023Z,96892.06
2023-12-30T23:11:59.689Z,96883.72
2023-12-30T23:14:27.321Z,96881.53
2023-12-30T23:16:55.018Z,96883.00
2023-12-30T23:19:22.728Z,96885.53
2023-12-30T23:21:51.837Z,96871.88
2023-12-30T23:24:19.590Z,96879.84
2023-12-30T23:26:47.317Z,96863.00
2023-12-30T23:29:15.003Z,96862.56
2023-12-30T23:31:43.034Z,96842.97
2023-12-30T23:34:10.942Z,96846.53
2023-12-30T23:36:38.762Z,96832.06
2023-12-30T23:39:08.104Z,96840.13
2023-12-30T23:41:36.231Z,96833.72
2023-12-30T23:44:03.923Z,96819.66
2023-12-30T23:46:31.902Z,96817.63
2023-12-30T23:48:59.766Z,96820.16
2023-12-30T23:51:27.902Z,96810.84
2023-12-30T23:53:55.850Z,96795.81
2023-12-30T23:56:27.189Z,96798.34
2023-12-30T23:58:55.128Z,96781.84
